Terminal Aerodrome Forecast
Issued by NWS Denver/Boulder, CO

Home | Current Version | Previous Version | Text Only | Print | Product List | Glossary On
Versions: 1 2 3 4 5 6 7 8 9 10 11 12 13 14 15 16 17 18 19 20 21 22 23 24 25 26 27
000
FTUS45 KBOU 090301 AAB
TAFDEN
TAF AMD
KDEN 090301Z 0903/1006 29011KT P6SM FEW100 SCT220
     FM090600 22010KT P6SM FEW120 SCT220
     FM091300 VRB06KT P6SM FEW220
     FM091900 36009KT P6SM FEW220
     FM100200 22009KT P6SM SKC=

USA.gov is the U.S. government's official web portal to all federal, state and local government web resources and services.